Terminal Aerodrome Forecast
Issued by NWS

Home | Current Version | Previous Version | Text Only | Print | Product List | Glossary On
Versions: 1 2 3 4 5 6 7 8 9 10 11 12 13
643
FTUS42 KGSP 242326
TAFAND
TAF
KAND 242326Z 2500/2524 04004KT P6SM FEW250
     FM251500 05009KT P6SM SCT250=

USA.gov is the U.S. government's official web portal to all federal, state and local government web resources and services.